Date,TemperatureHighF,TemperatureAvgF,TemperatureLowF,DewpointHighF,DewpointAvgF,DewpointLowF,HumidityHigh,HumidityAvg,HumidityLow,PressureMaxIn,PressureMinIn,WindSpeedMaxMPH,WindSpeedAvgMPH,GustSpeedMaxMPH,PrecipitationSumIn
2013-9-1,88.0,74.5,67.0,73.0,67.2,-99.9,99,82,56,0.00,40.00,4,1,11,0.38
2013-9-2,90.0,75.7,66.0,71.0,66.8,63.0,98,77,45,0.00,40.00,4,2,13,0.01
2013-9-3,80.0,69.0,59.0,64.0,56.6,53.0,94,68,39,0.00,40.00,3,1,12,0.00
2013-9-4,84.0,68.8,56.0,59.0,55.9,54.0,98,69,37,0.00,40.00,3,1,9,0.00
2013-9-5,88.0,74.6,62.0,62.0,59.0,57.0,87,62,38,0.00,40.00,3,1,9,0.00
2013-9-6,87.0,73.4,61.0,63.0,59.3,54.0,84,63,45,0.00,40.00,3,2,10,0.00
2013-9-7,90.0,75.2,63.0,65.0,60.5,56.0,85,63,37,0.00,40.00,4,1,13,0.00
2013-9-8,90.0,75.5,68.0,68.0,63.1,-99.9,98,72,44,0.00,40.00,3,1,11,0.01
2013-9-9,96.0,79.3,67.0,70.0,67.5,64.0,96,72,41,0.00,40.00,3,1,15,0.01
2013-9-10,94.0,78.5,70.0,73.0,70.3,68.0,98,79,45,0.00,40.00,4,2,16,0.39
2013-9-11,94.0,76.1,69.0,73.0,69.4,65.0,99,82,39,0.00,40.00,3,2,10,0.02
2013-9-12,79.0,73.4,67.0,72.0,68.2,63.0,98,85,65,0.00,40.00,3,2,12,0.07
2013-9-13,70.0,62.7,53.0,63.0,49.5,43.0,94,65,40,0.00,40.00,4,2,15,0.02
2013-9-14,74.0,58.9,44.0,48.0,44.3,41.0,97,64,32,0.00,40.00,4,1,10,0.00
2013-9-15,82.0,68.6,56.0,56.0,46.5,-99.9,70,50,34,0.00,40.00,3,1,11,0.00
2013-9-16,70.0,65.2,58.0,59.0,57.4,55.0,90,77,66,0.00,40.00,3,1,12,0.00
2013-9-17,77.0,62.9,51.0,55.0,52.3,50.0,96,72,42,0.00,40.00,4,2,14,0.00
2013-9-18,68.0,61.2,60.0,58.0,55.0,51.0,91,81,68,0.00,40.00,1,0,5,0.00
2013-9-19,84.0,70.1,65.0,72.0,67.4,65.0,99,92,67,0.00,40.00,3,1,10,1.77
2013-9-20,84.0,71.6,66.0,71.0,67.9,65.0,99,89,61,0.00,40.00,4,2,14,0.44
2013-9-21,72.0,63.3,56.0,66.0,55.7,48.0,99,79,45,0.00,40.00,4,2,11,0.57
2013-9-22,72.0,58.6,48.0,51.0,46.5,-99.9,98,70,43,0.00,40.00,3,1,10,0.05
2013-9-23,74.0,60.1,47.0,51.0,48.0,45.0,94,67,40,0.00,40.00,4,2,13,0.00
2013-9-24,79.0,63.0,50.0,60.0,54.2,48.0,94,74,53,0.00,40.00,4,2,10,0.00
2013-9-25,79.0,67.6,59.0,62.0,59.2,57.0,95,76,51,0.00,40.00,4,2,11,0.00
2013-9-26,80.0,66.4,52.0,59.0,53.3,50.0,98,67,37,0.00,40.00,3,1,9,0.00
2013-9-27,83.0,72.9,55.0,58.0,54.0,51.0,96,55,35,0.00,40.00,3,1,9,0.00
2013-9-28,84.0,76.7,63.0,59.0,57.5,56.0,79,54,40,0.00,40.00,3,1,11,0.00
2013-9-29,64.0,60.3,59.0,61.0,56.0,-99.9,99,89,79,0.00,40.00,2,1,11,0.29
2013-9-30,75.0,65.6,61.0,65.0,62.2,61.0,99,89,67,0.00,40.00,3,1,10,0.06